Time;durP1;ratioP1;P1;durP2;ratioP2;P2;SDS_P1;SDS_P2;PMS_P1;PMS_P2;Temp;Humidity;BMP_temperature;BMP_pressure;BME280_temperature;BME280_humidity;BME280_pressure;Samples;Min_cycle;Max_cycle;Signal;HPM_P1;HPM_P2
2021/01/02 00:01:27;;;;;;;5.28;4.80;;;15.60;28.20;;;;;;5115370;28;20196;-59
2021/01/02 00:04:09;;;;;;;5.10;4.72;;;15.60;28.20;;;;;;5115084;28;20206;-59
2021/01/02 00:07:13;;;;;;;6.32;5.82;;;15.60;28.20;;;;;;5115279;28;20145;-59
2021/01/02 00:09:43;;;;;;;5.30;4.90;;;15.60;28.20;;;;;;5083893;28;20210;-58
2021/01/02 00:12:21;;;;;;;5.00;4.60;;;15.60;28.20;;;;;;5114952;28;20540;-59
2021/01/02 00:15:03;;;;;;;5.50;5.00;;;15.60;28.20;;;;;;5115120;28;20153;-59
2021/01/02 00:17:58;;;;;;;4.78;4.38;;;15.60;28.20;;;;;;5114867;28;20156;-59
2021/01/02 00:21:14;;;;;;;5.70;5.30;;;15.60;28.20;;;;;;5115281;28;20183;-59
2021/01/02 00:23:39;;;;;;;5.63;5.20;;;15.60;28.20;;;;;;5031525;28;20397;-59
2021/01/02 00:26:30;;;;;;;5.33;4.83;;;15.60;28.20;;;;;;5106309;28;20612;-59
2021/01/02 00:28:57;;;;;;;4.72;4.43;;;15.60;28.20;;;;;;5114821;28;20153;-59
2021/01/02 00:32:04;;;;;;;5.05;4.65;;;15.60;28.20;;;;;;5114815;28;20523;-60
2021/01/02 00:34:38;;;;;;;5.05;4.65;;;15.60;28.20;;;;;;5114306;28;20181;-59
2021/01/02 00:37:17;;;;;;;5.18;4.78;;;15.60;28.20;;;;;;5114176;28;20152;-59
2021/01/02 00:40:04;;;;;;;4.85;4.55;;;15.60;28.20;;;;;;5114646;28;20173;-59
2021/01/02 00:42:31;;;;;;;5.30;4.80;;;17.20;29.30;;;;;;5114432;28;20145;-59
2021/01/02 00:44:59;;;;;;;5.40;5.00;;;15.60;28.20;;;;;;5113941;28;20167;-59
2021/01/02 00:47:32;;;;;;;5.38;4.97;;;15.60;28.20;;;;;;5114343;28;20160;-59
2021/01/02 00:49:59;;;;;;;5.10;4.70;;;15.60;28.20;;;;;;5114385;28;20291;-58
2021/01/02 00:52:49;;;;;;;5.53;5.03;;;15.70;28.20;;;;;;5114018;28;20153;-59
2021/01/02 00:55:24;;;;;;;5.05;4.65;;;15.60;28.20;;;;;;5114407;28;20146;-59
2021/01/02 00:57:50;;;;;;;5.07;4.65;;;15.60;28.20;;;;;;5113993;28;20184;-60
2021/01/02 01:00:20;;;;;;;5.30;4.80;;;15.60;28.20;;;;;;5114119;28;20577;-59
2021/01/02 01:03:04;;;;;;;5.00;4.60;;;15.70;28.20;;;;;;5114207;28;20173;-59
2021/01/02 01:05:35;;;;;;;5.18;4.75;;;15.70;28.20;;;;;;5096632;28;20165;-59
2021/01/02 01:08:01;;;;;;;6.25;5.72;;;15.70;28.20;;;;;;5113773;28;20504;-59
2021/01/02 01:10:31;;;;;;;5.47;5.07;;;15.70;28.20;;;;;;5114291;28;20153;-58
2021/01/02 01:13:09;;;;;;;5.50;5.10;;;15.70;28.20;;;;;;5114146;28;20214;-59
2021/01/02 01:15:35;;;;;;;5.28;4.88;;;15.70;28.20;;;;;;5114071;28;20610;-59
2021/01/02 01:18:15;;;;;;;4.83;4.43;;;15.70;28.20;;;;;;5095746;28;20205;-59
2021/01/02 01:20:53;;;;;;;5.68;5.20;;;15.70;28.20;;;;;;5114000;28;20396;-59
2021/01/02 01:23:36;;;;;;;5.50;5.10;;;15.70;28.20;;;;;;5113815;28;20163;-59
2021/01/02 01:26:30;;;;;;;4.93;4.53;;;15.70;28.20;;;;;;5113928;28;20160;-59
2021/01/02 01:28:57;;;;;;;4.90;4.50;;;15.70;28.20;;;;;;5113898;28;20615;-59
2021/01/02 01:31:23;;;;;;;4.53;4.22;;;15.70;28.20;;;;;;5095842;28;20183;-59
2021/01/02 01:33:51;;;;;;;5.37;4.87;;;15.70;28.20;;;;;;5113785;28;20161;-58
2021/01/02 01:36:21;;;;;;;4.68;4.38;;;15.70;28.20;;;;;;5113898;28;20403;-59
2021/01/02 01:38:53;;;;;;;5.20;4.80;;;15.70;28.20;;;;;;5113347;28;20192;-59
2021/01/02 01:41:32;;;;;;;5.80;5.30;;;15.70;28.20;;;;;;5095901;28;20198;-59
2021/01/02 01:44:10;;;;;;;5.50;5.10;;;15.70;28.20;;;;;;5095636;28;20168;-59
2021/01/02 01:46:50;;;;;;;5.53;5.03;;;15.70;28.20;;;;;;5113989;28;20766;-59
2021/01/02 01:49:42;;;;;;;6.72;5.43;;;15.70;28.20;;;;;;5113751;28;20188;-59
2021/01/02 01:52:25;;;;;;;5.30;4.90;;;15.70;28.20;;;;;;5128766;28;20169;-59
2021/01/02 01:55:09;;;;;;;5.35;4.85;;;15.70;28.20;;;;;;5113821;28;20156;-59
2021/01/02 01:57:40;;;;;;;5.38;4.97;;;15.70;28.20;;;;;;5117512;28;20580;-59
2021/01/02 02:00:14;;;;;;;5.32;4.82;;;15.70;28.70;;;;;;5117555;28;20212;-59
2021/01/02 02:02:39;;;;;;;5.75;4.20;;;15.70;28.20;;;;;;5117445;28;20611;-59
2021/01/02 02:05:10;;;;;;;5.57;5.00;;;15.70;28.20;;;;;;5117377;28;20148;-59
2021/01/02 02:07:47;;;;;;;4.60;4.30;;;15.70;28.20;;;;;;5116967;28;20149;-58
2021/01/02 02:10:20;;;;;;;4.80;4.40;;;15.70;28.20;;;;;;5099516;28;20175;-59
2021/01/02 02:12:54;;;;;;;4.95;4.55;;;15.70;28.20;;;;;;5117384;28;20597;-59
2021/01/02 02:15:28;;;;;;;4.85;4.45;;;15.70;28.20;;;;;;5118121;28;20160;-58
2021/01/02 02:18:07;;;;;;;4.93;4.53;;;15.70;28.20;;;;;;5117351;28;20231;-59
2021/01/02 02:20:34;;;;;;;5.00;4.65;;;15.70;28.20;;;;;;5117089;28;20161;-59
2021/01/02 02:23:09;;;;;;;5.60;4.45;;;15.70;28.20;;;;;;5116801;28;20153;-59
2021/01/02 02:26:05;;;;;;;5.20;4.70;;;15.70;28.20;;;;;;5098905;28;20531;-59
2021/01/02 02:28:42;;;;;;;5.18;4.78;;;15.70;28.20;;;;;;5117000;28;20604;-59
2021/01/02 02:31:08;;;;;;;5.93;4.35;;;15.70;28.20;;;;;;5117068;28;20235;-59
2021/01/02 02:33:37;;;;;;;4.70;4.30;;;15.70;28.20;;;;;;5098432;28;20299;-59
2021/01/02 02:36:04;;;;;;;5.03;4.72;;;15.70;28.20;;;;;;5098931;28;20174;-61
2021/01/02 02:38:38;;;;;;;4.40;4.00;;;15.70;28.20;;;;;;5116286;28;20670;-57
2021/01/02 02:41:09;;;;;;;5.10;4.60;;;15.70;28.20;;;;;;5116856;28;20232;-59
2021/01/02 02:43:41;;;;;;;5.45;4.95;;;15.70;28.20;;;;;;5116912;28;20146;-59
2021/01/02 02:46:13;;;;;;;4.50;4.18;;;15.70;28.20;;;;;;5116801;28;20158;-59
2021/01/02 02:48:46;;;;;;;4.28;3.90;;;15.70;28.70;;;;;;5116426;28;20654;-59
2021/01/02 02:51:14;;;;;;;4.63;4.22;;;15.70;28.20;;;;;;5116577;28;20263;-59
2021/01/02 02:53:40;;;;;;;4.45;4.13;;;15.70;28.20;;;;;;5116035;28;20616;-59
2021/01/02 02:56:05;;;;;;;4.30;4.00;;;15.70;28.10;;;;;;5116931;28;20165;-60
2021/01/02 02:58:31;;;;;;;5.00;4.60;;;15.70;28.20;;;;;;5116554;28;20196;-60
2021/01/02 03:00:57;;;;;;;5.40;4.90;;;15.70;28.20;;;;;;5116395;28;20307;-59
2021/01/02 03:03:23;;;;;;;5.07;4.67;;;15.70;28.20;;;;;;5116265;28;20161;-60
2021/01/02 03:05:53;;;;;;;4.60;4.20;;;15.70;28.20;;;;;;5116452;28;20449;-59
2021/01/02 03:08:18;;;;;;;5.03;4.53;;;15.70;28.20;;;;;;5114726;28;20198;-59
2021/01/02 03:10:45;;;;;;;4.80;4.40;;;15.70;28.20;;;;;;5116296;28;20169;-59
2021/01/02 03:13:12;;;;;;;4.30;3.90;;;15.70;28.20;;;;;;5116525;28;20171;-59
2021/01/02 03:15:39;;;;;;;4.78;4.47;;;15.70;28.20;;;;;;5116313;28;20172;-60
2021/01/02 03:18:05;;;;;;;5.03;4.53;;;15.70;28.20;;;;;;5116070;28;20709;-59
2021/01/02 03:20:31;;;;;;;5.33;4.93;;;15.70;28.20;;;;;;5116229;28;20194;-59
2021/01/02 03:22:57;;;;;;;5.27;4.77;;;15.70;28.20;;;;;;5131524;27;20176;-59
2021/01/02 03:25:22;;;;;;;4.63;4.33;;;15.70;28.20;;;;;;5116177;28;20417;-59
2021/01/02 03:27:52;;;;;;;4.47;4.10;;;15.70;28.20;;;;;;5116186;28;20452;-59
2021/01/02 03:30:19;;;;;;;4.72;4.20;;;15.70;28.20;;;;;;5115904;28;20150;-59
2021/01/02 03:32:45;;;;;;;4.03;3.72;;;15.70;28.20;;;;;;5115701;28;20248;-59
2021/01/02 03:35:12;;;;;;;4.40;4.10;;;15.70;28.20;;;;;;5115950;28;20241;-59
2021/01/02 03:37:40;;;;;;;5.35;4.80;;;15.70;28.20;;;;;;5115274;28;20161;-59
2021/01/02 03:40:07;;;;;;;4.63;4.28;;;15.70;28.20;;;;;;5115852;28;20240;-59
2021/01/02 03:42:37;;;;;;;4.60;4.30;;;15.70;28.20;;;;;;5097321;28;20168;-59
2021/01/02 03:45:04;;;;;;;4.22;3.88;;;15.70;28.20;;;;;;5115781;28;20145;-59
2021/01/02 03:47:30;;;;;;;4.32;4.03;;;15.70;28.20;;;;;;5097530;28;20161;-59
2021/01/02 03:49:58;;;;;;;4.60;4.30;;;15.70;28.20;;;;;;5115577;28;20214;-59
2021/01/02 03:52:26;;;;;;;5.35;4.95;;;15.60;28.10;;;;;;5097240;28;20157;-59
2021/01/02 03:54:52;;;;;;;4.45;4.05;;;15.70;28.20;;;;;;5115806;28;20161;-59
2021/01/02 03:57:17;;;;;;;4.83;4.47;;;15.70;28.20;;;;;;5115237;28;20202;-59
2021/01/02 03:59:43;;;;;;;3.97;3.67;;;15.60;28.10;;;;;;5115248;28;20473;-59
2021/01/02 04:02:09;;;;;;;5.03;4.63;;;15.70;28.20;;;;;;5096945;28;20657;-59
2021/01/02 04:04:34;;;;;;;4.27;3.90;;;15.60;28.10;;;;;;5115204;28;20146;-59
2021/01/02 04:07:03;;;;;;;4.13;3.83;;;15.60;28.10;;;;;;5114829;28;20244;-59
2021/01/02 04:09:30;;;;;;;5.10;4.70;;;15.60;28.10;;;;;;5115253;28;20157;-59
2021/01/02 04:11:56;;;;;;;4.53;4.22;;;15.60;28.10;;;;;;5114954;28;20630;-59
2021/01/02 04:14:21;;;;;;;4.27;3.93;;;15.70;28.20;;;;;;5115218;28;20248;-59
2021/01/02 04:16:47;;;;;;;4.53;4.13;;;15.70;28.20;;;;;;5114891;28;20450;-59
2021/01/02 04:19:13;;;;;;;4.23;3.93;;;15.60;28.10;;;;;;5096521;28;20539;-59
2021/01/02 04:21:39;;;;;;;3.87;3.67;;;15.70;28.20;;;;;;5096757;28;20173;-59
2021/01/02 04:24:05;;;;;;;3.97;3.65;;;15.60;28.10;;;;;;5114452;28;20206;-59
2021/01/02 04:26:34;;;;;;;4.85;4.45;;;15.60;28.20;;;;;;5114943;28;20150;-59
2021/01/02 04:29:00;;;;;;;4.30;3.90;;;15.60;28.20;;;;;;5114785;28;20509;-62
2021/01/02 04:31:41;;;;;;;4.28;3.88;;;15.60;28.20;;;;;;5114724;28;20157;-60
2021/01/02 04:34:08;;;;;;;4.05;3.75;;;15.70;28.80;;;;;;5114900;28;20239;-59
2021/01/02 04:36:36;;;;;;;4.40;4.00;;;15.70;28.20;;;;;;5096494;28;20244;-59
2021/01/02 04:39:02;;;;;;;4.53;4.22;;;15.60;28.10;;;;;;5114025;28;20581;-59
2021/01/02 04:41:28;;;;;;;4.07;3.78;;;15.60;28.20;;;;;;5114669;28;20233;-59
2021/01/02 04:43:53;;;;;;;3.63;3.43;;;15.60;28.20;;;;;;5079699;28;20192;-59
2021/01/02 04:46:22;;;;;;;4.10;3.80;;;15.60;28.20;;;;;;5096317;28;20640;-59
2021/01/02 04:48:48;;;;;;;4.80;4.40;;;15.70;28.80;;;;;;5114327;28;20429;-59
2021/01/02 04:51:15;;;;;;;4.88;3.38;;;15.60;28.20;;;;;;5114562;28;20156;-59
2021/01/02 04:53:42;;;;;;;4.32;4.07;;;15.60;28.20;;;;;;5095888;28;20616;-59
2021/01/02 04:56:11;;;;;;;4.45;4.05;;;15.60;28.20;;;;;;5114422;28;20165;-59
2021/01/02 04:58:42;;;;;;;3.80;3.50;;;15.60;28.20;;;;;;5114290;28;20189;-59
2021/01/02 05:01:10;;;;;;;4.20;3.85;;;15.60;28.20;;;;;;5127036;27;20300;-59
2021/01/02 05:03:42;;;;;;;4.63;4.25;;;15.60;28.20;;;;;;5093962;28;20174;-59
2021/01/02 05:06:08;;;;;;;4.57;4.22;;;15.60;28.20;;;;;;5093807;28;20204;-60
2021/01/02 05:08:34;;;;;;;4.70;4.30;;;15.60;28.20;;;;;;5093406;28;20621;-59
2021/01/02 05:11:02;;;;;;;4.55;4.13;;;15.60;28.20;;;;;;5093930;28;20200;-59
2021/01/02 05:13:32;;;;;;;4.45;4.05;;;15.60;28.20;;;;;;5093558;28;20199;-58
2021/01/02 05:16:16;;;;;;;4.30;4.00;;;15.60;28.20;;;;;;5093979;28;20164;-59
2021/01/02 05:19:12;;;;;;;4.60;4.18;;;15.60;28.20;;;;;;5093607;28;20185;-58
2021/01/02 05:21:48;;;;;;;3.85;3.55;;;15.60;28.20;;;;;;5081293;28;20177;-59
2021/01/02 05:24:19;;;;;;;4.15;3.67;;;15.60;28.80;;;;;;5093228;28;20157;-58
2021/01/02 05:26:46;;;;;;;4.30;3.97;;;15.60;28.20;;;;;;5093632;28;20177;-59
2021/01/02 05:29:23;;;;;;;4.10;3.80;;;15.60;28.20;;;;;;5093560;28;20564;-59
2021/01/02 05:31:54;;;;;;;4.30;4.00;;;15.60;28.30;;;;;;5095584;28;20169;-59
2021/01/02 05:34:21;;;;;;;4.30;4.00;;;15.60;28.20;;;;;;5096515;28;20203;-60
2021/01/02 05:36:58;;;;;;;4.00;3.70;;;15.60;28.20;;;;;;5097960;28;20166;-59
2021/01/02 05:39:39;;;;;;;4.90;4.50;;;15.60;28.20;;;;;;5097856;28;20521;-59
2021/01/02 05:42:06;;;;;;;3.78;3.47;;;15.60;28.30;;;;;;5097570;28;20423;-59
2021/01/02 05:44:35;;;;;;;4.70;4.40;;;15.60;28.20;;;;;;5097635;28;20223;-59
2021/01/02 05:47:01;;;;;;;4.65;4.30;;;15.60;28.30;;;;;;5097492;28;20212;-60
2021/01/02 05:49:36;;;;;;;4.50;4.15;;;15.60;28.20;;;;;;5097300;28;20709;-59
2021/01/02 05:52:13;;;;;;;4.00;3.70;;;15.60;28.20;;;;;;5096996;28;20157;-59
2021/01/02 05:54:59;;;;;;;3.80;3.50;;;15.60;28.20;;;;;;5097295;28;20600;-59
2021/01/02 05:57:29;;;;;;;4.93;4.43;;;15.60;28.20;;;;;;5096879;28;20200;-59
2021/01/02 05:59:56;;;;;;;3.88;3.58;;;15.60;28.30;;;;;;5103947;28;20212;-59
2021/01/02 06:02:26;;;;;;;3.70;3.40;;;15.60;28.20;;;;;;5117635;28;20236;-58
2021/01/02 06:05:12;;;;;;;4.00;3.70;;;15.60;28.30;;;;;;5117718;28;20232;-59
2021/01/02 06:07:39;;;;;;;4.82;4.32;;;15.60;28.30;;;;;;5117201;28;20232;-59
2021/01/02 06:10:10;;;;;;;4.28;3.97;;;15.60;28.30;;;;;;5117590;28;20157;-59
2021/01/02 06:12:41;;;;;;;4.30;4.00;;;15.60;28.30;;;;;;5133378;27;20161;-59
2021/01/02 06:15:15;;;;;;;4.30;3.90;;;15.60;28.30;;;;;;5117565;28;20153;-59
2021/01/02 06:17:46;;;;;;;4.18;3.88;;;15.60;28.20;;;;;;5117336;28;20187;-59
2021/01/02 06:20:16;;;;;;;3.75;3.50;;;15.60;28.20;;;;;;5117594;28;20142;-59
2021/01/02 06:22:42;;;;;;;4.20;3.90;;;15.60;28.30;;;;;;5098459;28;20169;-58
2021/01/02 06:25:09;;;;;;;3.75;3.45;;;15.60;28.30;;;;;;5099005;28;20176;-59
2021/01/02 06:27:43;;;;;;;4.20;3.90;;;15.60;28.30;;;;;;5116993;28;20233;-59
2021/01/02 06:30:14;;;;;;;5.80;4.45;;;15.60;28.30;;;;;;5117221;28;20157;-59
2021/01/02 06:32:44;;;;;;;3.63;3.35;;;15.60;28.30;;;;;;5117010;28;20154;-59
2021/01/02 06:35:10;;;;;;;4.07;3.70;;;15.60;28.30;;;;;;5098832;28;20169;-59
2021/01/02 06:37:48;;;;;;;3.33;3.10;;;15.60;28.30;;;;;;5116523;28;20141;-59
2021/01/02 06:40:20;;;;;;;4.20;3.90;;;15.60;28.30;;;;;;5116723;28;20198;-59
2021/01/02 06:43:00;;;;;;;3.92;3.63;;;15.60;28.30;;;;;;5098662;28;20153;-59
2021/01/02 06:45:35;;;;;;;4.28;3.88;;;15.60;28.30;;;;;;5116946;28;20160;-58
2021/01/02 06:48:23;;;;;;;3.90;3.60;;;15.60;28.30;;;;;;5116894;28;20653;-59
2021/01/02 06:50:52;;;;;;;4.70;4.40;;;15.60;28.30;;;;;;5116451;28;20176;-59
2021/01/02 06:53:34;;;;;;;4.60;4.25;;;15.60;28.30;;;;;;5116168;28;20172;-59
2021/01/02 06:56:01;;;;;;;3.88;3.63;;;15.60;28.30;;;;;;5116430;28;20230;-59
2021/01/02 06:58:49;;;;;;;3.90;3.60;;;15.60;28.30;;;;;;5116647;28;20185;-59
2021/01/02 07:01:15;;;;;;;4.15;3.85;;;15.60;28.30;;;;;;5116412;28;20278;-59
2021/01/02 07:03:41;;;;;;;4.37;4.07;;;15.60;28.30;;;;;;5116432;28;20153;-59
2021/01/02 07:06:23;;;;;;;3.50;3.20;;;15.60;28.30;;;;;;5116516;28;20654;-59
2021/01/02 07:08:53;;;;;;;3.83;3.53;;;15.60;28.30;;;;;;5115915;28;20627;-60
2021/01/02 07:11:37;;;;;;;4.25;3.85;;;15.60;28.30;;;;;;5098338;28;20161;-59
2021/01/02 07:14:12;;;;;;;4.50;4.15;;;15.60;28.30;;;;;;5116274;28;20153;-59
2021/01/02 07:17:09;;;;;;;3.65;3.45;;;15.60;28.30;;;;;;5116262;28;20153;-59
2021/01/02 07:19:55;;;;;;;4.05;3.75;;;15.60;28.30;;;;;;5116119;28;20200;-59
2021/01/02 07:22:24;;;;;;;3.55;3.25;;;15.60;28.30;;;;;;5131524;27;20168;-59
2021/01/02 07:24:54;;;;;;;3.92;3.70;;;15.60;28.30;;;;;;5116024;28;20256;-59
2021/01/02 07:27:21;;;;;;;3.58;3.28;;;15.60;28.30;;;;;;5116087;28;20153;-59
2021/01/02 07:29:55;;;;;;;4.65;4.25;;;15.60;28.30;;;;;;5115950;28;20157;-59
2021/01/02 07:32:21;;;;;;;3.33;3.05;;;15.60;28.80;;;;;;5131616;27;20282;-59
2021/01/02 07:34:55;;;;;;;4.57;4.18;;;15.60;28.30;;;;;;5115955;28;20627;-59
2021/01/02 07:37:23;;;;;;;4.10;3.80;;;15.60;28.30;;;;;;5115431;28;20157;-59
2021/01/02 07:40:13;;;;;;;3.70;3.40;;;15.60;28.30;;;;;;5115729;28;20185;-59
2021/01/02 07:42:41;;;;;;;4.03;3.72;;;15.60;28.30;;;;;;5105292;28;20187;-59
2021/01/02 07:45:12;;;;;;;3.95;3.20;;;15.60;28.30;;;;;;5115760;28;20149;-59
2021/01/02 07:47:52;;;;;;;4.10;3.70;;;15.60;28.30;;;;;;5115624;28;20223;-59
2021/01/02 07:50:20;;;;;;;3.95;3.65;;;15.60;28.30;;;;;;5115382;28;20594;-59
2021/01/02 07:52:51;;;;;;;3.90;3.60;;;15.60;28.30;;;;;;5114478;28;20157;-59
2021/01/02 07:55:20;;;;;;;3.67;3.40;;;15.60;28.30;;;;;;5115505;28;20521;-59
2021/01/02 07:57:47;;;;;;;4.53;4.20;;;15.60;28.80;;;;;;5115188;28;20200;-59
2021/01/02 08:00:14;;;;;;;4.40;4.00;;;15.60;28.30;;;;;;5115029;28;20672;-59
2021/01/02 08:02:40;;;;;;;3.90;3.60;;;15.60;28.20;;;;;;5115175;28;20241;-58
2021/01/02 08:05:12;;;;;;;4.05;3.75;;;15.60;28.30;;;;;;5114925;28;20173;-59
2021/01/02 08:07:39;;;;;;;4.15;3.85;;;15.60;28.20;;;;;;5114564;28;20254;-59
2021/01/02 08:10:08;;;;;;;4.10;3.80;;;15.60;28.20;;;;;;5114982;28;20177;-59
2021/01/02 08:12:35;;;;;;;3.83;3.47;;;15.60;28.20;;;;;;5115093;28;20553;-58
2021/01/02 08:15:01;;;;;;;4.10;3.70;;;15.60;28.20;;;;;;5130955;27;20168;-58
2021/01/02 08:17:38;;;;;;;4.30;3.97;;;15.60;28.20;;;;;;5114659;28;20172;-59
2021/01/02 08:20:04;;;;;;;4.03;3.72;;;15.60;28.20;;;;;;5114764;28;20473;-59
2021/01/02 08:22:35;;;;;;;4.00;3.60;;;15.60;28.20;;;;;;5114096;28;20169;-59
2021/01/02 08:25:10;;;;;;;4.03;3.72;;;15.60;28.20;;;;;;5115031;28;20154;-59
2021/01/02 08:27:36;;;;;;;3.95;3.67;;;15.60;28.20;;;;;;5114857;28;20599;-59
2021/01/02 08:30:05;;;;;;;3.85;3.55;;;15.60;28.20;;;;;;5114805;28;20164;-59
2021/01/02 08:32:33;;;;;;;4.55;4.15;;;15.60;28.20;;;;;;5114655;28;20161;-59
2021/01/02 08:34:58;;;;;;;4.30;4.00;;;15.60;28.20;;;;;;5114591;28;20458;-59
2021/01/02 08:37:24;;;;;;;4.20;3.80;;;15.60;28.20;;;;;;5114049;28;20193;-58
2021/01/02 08:40:07;;;;;;;3.30;3.10;;;15.60;28.20;;;;;;5107073;28;20201;-59
2021/01/02 08:42:43;;;;;;;3.70;3.40;;;15.60;28.20;;;;;;5107930;28;20157;-58
2021/01/02 08:45:12;;;;;;;3.22;2.92;;;15.60;28.20;;;;;;5114541;28;20172;-59
2021/01/02 08:47:39;;;;;;;4.25;3.85;;;15.60;28.20;;;;;;5114504;28;20234;-59
2021/01/02 08:50:15;;;;;;;3.95;3.65;;;15.60;28.10;;;;;;5114448;28;20632;-59
2021/01/02 08:52:42;;;;;;;4.00;3.70;;;15.60;28.10;;;;;;5113765;28;20212;-58
2021/01/02 08:55:13;;;;;;;4.20;3.90;;;15.60;28.10;;;;;;5114511;28;20168;-59
2021/01/02 08:57:53;;;;;;;5.82;3.40;;;15.60;28.10;;;;;;5114223;28;20634;-59
2021/01/02 09:00:29;;;;;;;3.72;3.53;;;15.60;28.10;;;;;;5114408;28;20220;-59
2021/01/02 09:02:54;;;;;;;3.13;2.92;;;15.60;28.10;;;;;;5114166;28;20152;-59
2021/01/02 09:05:37;;;;;;;3.50;3.20;;;15.60;28.10;;;;;;5113284;28;20152;-59
2021/01/02 09:08:07;;;;;;;4.20;3.90;;;15.60;28.00;;;;;;5113700;28;20149;-59
2021/01/02 09:10:38;;;;;;;3.80;3.50;;;15.60;28.00;;;;;;5114013;28;20149;-58
2021/01/02 09:13:24;;;;;;;3.95;3.65;;;15.60;28.00;;;;;;5113998;28;20153;-58
2021/01/02 09:15:58;;;;;;;3.50;3.20;;;15.60;28.10;;;;;;5114245;28;20197;-59
2021/01/02 09:18:23;;;;;;;4.38;4.00;;;15.60;28.10;;;;;;5114146;28;20184;-59
2021/01/02 09:20:49;;;;;;;4.03;3.00;;;15.70;28.10;;;;;;5114058;28;20549;-58
2021/01/02 09:23:27;;;;;;;3.57;3.27;;;15.60;28.00;;;;;;5095202;28;20168;-59
2021/01/02 09:25:53;;;;;;;3.78;3.38;;;15.60;28.00;;;;;;5113954;28;20659;-58
2021/01/02 09:28:19;;;;;;;3.90;3.60;;;15.60;28.00;;;;;;5114025;28;20239;-59
2021/01/02 09:30:45;;;;;;;4.07;3.77;;;15.70;28.00;;;;;;5095909;28;20513;-59
2021/01/02 09:33:12;;;;;;;3.90;3.60;;;15.70;28.00;;;;;;5113762;28;20909;-59
2021/01/02 09:35:39;;;;;;;3.83;3.53;;;15.70;28.00;;;;;;5113733;28;20165;-60
2021/01/02 09:38:05;;;;;;;3.10;2.90;;;15.70;28.00;;;;;;5113310;28;20631;-59
2021/01/02 09:40:33;;;;;;;3.50;3.28;;;15.70;28.00;;;;;;5095802;28;20149;-59
2021/01/02 09:42:59;;;;;;;3.53;3.33;;;15.70;28.00;;;;;;5113733;28;20149;-59
2021/01/02 09:45:25;;;;;;;3.67;3.37;;;15.70;27.90;;;;;;5113698;28;20165;-59
2021/01/02 09:47:50;;;;;;;3.97;3.67;;;15.70;28.50;;;;;;5113664;28;20218;-59
2021/01/02 09:50:16;;;;;;;3.43;3.23;;;15.70;27.90;;;;;;5095240;28;20505;-59
2021/01/02 09:52:42;;;;;;;3.70;3.40;;;15.70;27.90;;;;;;5113192;28;20172;-58
2021/01/02 09:55:08;;;;;;;3.50;3.30;;;15.70;27.90;;;;;;5113784;28;20165;-59
2021/01/02 09:57:34;;;;;;;4.32;3.95;;;15.70;27.90;;;;;;5113618;28;20168;-59
2021/01/02 09:59:59;;;;;;;3.67;3.37;;;15.70;27.90;;;;;;5113594;28;20225;-59
2021/01/02 10:02:25;;;;;;;4.17;3.87;;;15.70;27.90;;;;;;5113467;28;20609;-60
2021/01/02 10:04:50;;;;;;;3.47;3.20;;;15.70;27.90;;;;;;5113427;28;20241;-58
2021/01/02 10:07:17;;;;;;;3.60;3.33;;;15.70;27.90;;;;;;5094959;28;20653;-59
2021/01/02 10:09:46;;;;;;;3.63;3.38;;;15.70;27.90;;;;;;5113644;28;20158;-58
2021/01/02 10:12:16;;;;;;;3.65;3.45;;;15.70;27.90;;;;;;5113487;28;20242;-58
2021/01/02 10:14:42;;;;;;;3.22;3.03;;;15.70;27.90;;;;;;5113531;28;20157;-59
2021/01/02 10:17:09;;;;;;;2.72;2.53;;;15.80;27.80;;;;;;5115451;28;20153;-59
2021/01/02 10:19:35;;;;;;;3.92;3.63;;;15.80;27.70;;;;;;5098922;28;20200;-58
2021/01/02 10:22:03;;;;;;;3.72;3.42;;;15.80;27.70;;;;;;5098760;28;20156;-58
2021/01/02 10:24:29;;;;;;;3.25;3.05;;;15.80;27.60;;;;;;5117292;28;20185;-60
2021/01/02 10:26:55;;;;;;;3.90;3.60;;;15.80;27.60;;;;;;5117225;28;20157;-59
2021/01/02 10:29:20;;;;;;;3.43;3.23;;;15.90;27.60;;;;;;5098898;28;20171;-58
2021/01/02 10:31:47;;;;;;;3.90;3.60;;;15.90;27.50;;;;;;5115708;28;20169;-58
2021/01/02 10:34:14;;;;;;;4.20;3.65;;;15.90;28.00;;;;;;5117143;28;20149;-58
2021/01/02 10:36:40;;;;;;;4.28;3.97;;;15.90;27.40;;;;;;5098550;28;20692;-58
2021/01/02 10:39:06;;;;;;;3.80;3.50;;;15.90;27.40;;;;;;5116402;28;20188;-59
2021/01/02 10:41:32;;;;;;;2.90;2.70;;;15.90;27.40;;;;;;5116976;28;20395;-58
2021/01/02 10:43:57;;;;;;;3.80;3.50;;;15.90;27.30;;;;;;5116721;28;20400;-59
2021/01/02 10:46:23;;;;;;;3.87;3.57;;;16.00;27.40;;;;;;5098412;28;20164;-59
2021/01/02 10:48:49;;;;;;;3.97;3.67;;;15.90;27.30;;;;;;5116507;28;20153;-59
2021/01/02 10:51:18;;;;;;;3.60;3.30;;;16.00;27.40;;;;;;5116779;28;20571;-59
2021/01/02 10:53:43;;;;;;;3.45;3.20;;;16.00;27.30;;;;;;5116216;28;20464;-59
2021/01/02 10:56:15;;;;;;;3.50;3.30;;;16.00;27.30;;;;;;5116595;28;20207;-58
2021/01/02 10:58:41;;;;;;;3.50;3.30;;;16.00;27.30;;;;;;5116415;28;20280;-59
2021/01/02 11:01:07;;;;;;;3.97;3.67;;;16.10;27.30;;;;;;5116313;28;20220;-60
2021/01/02 11:03:35;;;;;;;3.63;3.33;;;16.00;27.20;;;;;;5132175;27;20196;-58
2021/01/02 11:06:08;;;;;;;3.30;3.00;;;16.00;27.10;;;;;;5116469;28;20156;-59
2021/01/02 11:08:35;;;;;;;3.50;3.30;;;16.10;27.10;;;;;;5115952;28;20175;-58
2021/01/02 11:11:01;;;;;;;3.70;3.40;;;16.00;27.10;;;;;;5116240;28;20229;-59
2021/01/02 11:13:27;;;;;;;3.85;3.10;;;16.00;27.10;;;;;;5116517;28;20157;-58
2021/01/02 11:15:53;;;;;;;3.53;3.23;;;16.10;27.10;;;;;;5115989;28;20248;-59
2021/01/02 11:18:19;;;;;;;3.85;3.55;;;16.10;27.10;;;;;;5116012;28;20483;-59
2021/01/02 11:20:46;;;;;;;4.20;3.90;;;16.10;27.00;;;;;;5116174;28;20154;-59
2021/01/02 11:23:17;;;;;;;3.80;3.50;;;16.10;27.00;;;;;;5115826;28;20196;-58
2021/01/02 11:25:43;;;;;;;3.45;3.25;;;16.10;27.00;;;;;;5116080;28;20153;-59
2021/01/02 11:28:08;;;;;;;3.72;3.38;;;16.10;27.00;;;;;;5096728;28;20177;-59
2021/01/02 11:30:34;;;;;;;2.80;2.60;;;16.10;27.00;;;;;;5115843;28;20232;-59
2021/01/02 11:33:00;;;;;;;4.00;3.70;;;16.10;26.90;;;;;;5115795;28;20577;-59
2021/01/02 11:35:25;;;;;;;3.60;3.33;;;16.10;26.90;;;;;;5115957;28;20172;-58
2021/01/02 11:37:51;;;;;;;3.83;3.53;;;16.10;26.90;;;;;;5115298;28;20162;-58
2021/01/02 11:40:18;;;;;;;3.10;2.90;;;16.10;26.90;;;;;;5097720;28;20153;-58
2021/01/02 11:42:44;;;;;;;3.35;3.10;;;16.10;26.90;;;;;;5115675;28;20157;-59
2021/01/02 11:45:15;;;;;;;3.38;3.00;;;16.10;26.90;;;;;;5104362;28;20178;-59
2021/01/02 11:47:41;;;;;;;3.40;3.20;;;16.10;27.00;;;;;;5096680;28;20549;-59
2021/01/02 11:50:07;;;;;;;3.50;3.30;;;16.10;27.00;;;;;;5109448;28;20649;-59
2021/01/02 11:52:34;;;;;;;2.90;2.67;;;16.10;27.00;;;;;;5094426;28;20166;-59
2021/01/02 11:54:59;;;;;;;3.45;3.15;;;16.00;26.90;;;;;;5095114;28;20177;-59
2021/01/02 11:57:25;;;;;;;3.80;3.50;;;16.00;26.90;;;;;;5104485;27;20697;-58
2021/01/02 11:59:51;;;;;;;8.83;8.03;;;16.10;27.50;;;;;;5107471;28;20226;-58
2021/01/02 12:02:16;;;;;;;17.73;10.27;;;16.00;24.40;;;;;;5107465;28;20214;-57
2021/01/02 12:04:44;;;;;;;9.47;8.67;;;15.70;22.60;;;;;;5112987;27;20848;-58
2021/01/02 12:07:11;;;;;;;10.98;9.98;;;15.50;23.90;;;;;;5088534;28;20165;-59
2021/01/02 12:09:38;;;;;;;8.80;8.00;;;15.40;23.40;;;;;;5106264;28;20162;-58
2021/01/02 12:12:04;;;;;;;11.45;9.55;;;15.20;23.80;;;;;;5099594;28;20180;-57
2021/01/02 12:14:33;;;;;;;9.50;8.60;;;15.10;24.20;;;;;;5107544;28;20156;-57
2021/01/02 12:17:00;;;;;;;9.02;8.23;;;15.00;24.20;;;;;;5112459;27;20181;-57
2021/01/02 12:19:29;;;;;;;6.35;5.85;;;14.90;24.10;;;;;;5088869;28;20663;-59
2021/01/02 12:21:56;;;;;;;8.27;4.70;;;15.00;24.60;;;;;;5098955;28;20174;-60
2021/01/02 12:24:22;;;;;;;5.10;4.70;;;15.00;26.80;;;;;;5106675;28;20193;-59
2021/01/02 12:26:57;;;;;;;4.60;4.30;;;15.10;27.90;;;;;;5105661;28;20188;-59
2021/01/02 12:29:24;;;;;;;5.22;4.75;;;15.10;27.90;;;;;;5110517;28;20916;-59
2021/01/02 12:31:54;;;;;;;5.20;4.80;;;15.20;27.60;;;;;;5107553;28;20216;-59
2021/01/02 12:34:23;;;;;;;5.20;4.13;;;15.30;27.20;;;;;;5096881;28;20260;-59
2021/01/02 12:36:49;;;;;;;5.47;4.97;;;15.40;26.90;;;;;;5107623;28;20174;-59
2021/01/02 12:39:18;;;;;;;4.97;4.40;;;15.40;26.60;;;;;;5106460;28;20193;-59
2021/01/02 12:41:43;;;;;;;4.70;4.38;;;15.50;26.50;;;;;;5100725;28;20165;-59
2021/01/02 12:44:10;;;;;;;3.70;3.40;;;15.50;26.30;;;;;;5107459;27;20176;-60
2021/01/02 12:46:42;;;;;;;4.18;3.88;;;15.60;26.20;;;;;;5107410;28;20250;-59
2021/01/02 12:49:08;;;;;;;4.60;4.10;;;15.60;26.20;;;;;;5100617;28;20181;-60
2021/01/02 12:51:34;;;;;;;3.88;3.58;;;15.60;26.10;;;;;;5109791;28;20248;-60
2021/01/02 12:54:00;;;;;;;4.95;4.45;;;15.70;26.10;;;;;;5106458;28;20180;-61
2021/01/02 12:56:26;;;;;;;3.77;3.47;;;15.70;26.10;;;;;;5103267;28;20181;-59
2021/01/02 12:58:52;;;;;;;4.45;3.45;;;15.70;26.10;;;;;;5106400;28;20185;-58
2021/01/02 13:01:17;;;;;;;5.03;4.23;;;15.70;26.10;;;;;;5105437;28;20255;-59
2021/01/02 13:03:44;;;;;;;3.33;3.10;;;15.70;26.10;;;;;;5108091;28;20467;-59